Terminal Aerodrome Forecast
Issued by NWS

Home | Current Version | Previous Version | Text Only | Print | Product List | Glossary Off
Versions: 1 2 3 4 5 6 7 8 9 10 11 12 13 14 15

000
FTUS43 KGRB 182014 AAA
TAFAUW
TAF AMD
KAUW 182014Z 1820/1918 33010G17KT P6SM OVC025
     FM182300 31012KT P6SM BKN025
      TEMPO 1823/1902 SCT025 BKN045
     FM190200 31012KT P6SM BKN035
      TEMPO 1905/1909 BKN025
     FM190900 30010KT P6SM SCT035 BKN200
     FM191500 30011KT P6SM SCT040 BKN200=

USA.gov is the U.S. government's official web portal to all federal, state and local government web resources and services.